createdAt,value
2022-11-16T00:03:18.086Z,9.17
2022-11-16T00:08:21.602Z,8.47
2022-11-16T00:13:25.119Z,9.14
2022-11-16T00:18:30.331Z,9.70
2022-11-16T00:23:37.096Z,9.45
2022-11-16T00:28:41.457Z,9.02
2022-11-16T00:33:45.284Z,8.77
2022-11-16T00:38:53.226Z,8.70
2022-11-16T00:43:56.729Z,9.26
2022-11-16T00:49:01.647Z,9.58
2022-11-16T00:54:05.933Z,9.79
2022-11-16T00:59:09.482Z,9.08
2022-11-16T01:04:13.138Z,8.53
2022-11-16T01:09:16.656Z,9.21
2022-11-16T01:14:20.134Z,9.08
2022-11-16T01:19:23.827Z,8.93
2022-11-16T01:24:28.474Z,9.53
2022-11-16T01:29:33.467Z,8.49
2022-11-16T01:34:37.032Z,9.41
2022-11-16T01:39:40.614Z,9.21
2022-11-16T01:44:44.027Z,9.35
2022-11-16T01:49:55.457Z,8.67
2022-11-16T01:54:59.371Z,9.33
2022-11-16T02:00:06.756Z,9.12
2022-11-16T02:05:13.749Z,9.27
2022-11-16T02:10:30.899Z,9.14
2022-11-16T02:15:34.387Z,9.43
2022-11-16T02:20:55.795Z,9.55
2022-11-16T02:26:02.020Z,9.57
2022-11-16T02:31:07.891Z,9.41
2022-11-16T02:36:15.564Z,9.08
2022-11-16T02:41:22.409Z,9.57
2022-11-16T02:46:32.054Z,8.68
2022-11-16T02:51:37.974Z,8.94
2022-11-16T02:56:58.375Z,9.37
2022-11-16T03:02:26.802Z,9.30
2022-11-16T03:07:35.402Z,8.83
2022-11-16T03:12:41.172Z,9.40
2022-11-16T03:17:48.641Z,9.39
2022-11-16T03:23:01.937Z,9.07
2022-11-16T03:28:14.037Z,9.02
2022-11-16T03:33:28.478Z,9.44
2022-11-16T03:38:33.092Z,8.89
2022-11-16T03:43:38.094Z,9.54
2022-11-16T03:48:41.585Z,9.69
2022-11-16T03:53:44.297Z,9.35
2022-11-16T03:58:55.546Z,9.71
2022-11-16T04:03:58.390Z,9.69
2022-11-16T04:09:31.703Z,8.85
2022-11-16T04:14:55.070Z,9.70
2022-11-16T04:20:16.498Z,8.98
2022-11-16T04:25:26.439Z,9.16
2022-11-16T04:30:49.159Z,9.46
2022-11-16T04:36:10.537Z,8.83
2022-11-16T04:41:33.410Z,9.58
2022-11-16T04:46:55.857Z,9.66
2022-11-16T04:51:59.041Z,9.59
2022-11-16T04:57:01.903Z,9.76
2022-11-16T05:02:11.398Z,9.79
2022-11-16T05:07:16.008Z,9.47
2022-11-16T05:12:27.544Z,9.60
2022-11-16T05:17:36.787Z,9.52
2022-11-16T05:22:40.263Z,9.42
2022-11-16T05:27:42.954Z,9.46
2022-11-16T05:32:55.272Z,9.58
2022-11-16T05:37:58.011Z,9.80
2022-11-16T05:43:00.849Z,9.02
2022-11-16T05:48:03.533Z,9.93
2022-11-16T05:53:06.148Z,9.71
2022-11-16T05:58:08.845Z,9.52
2022-11-16T06:03:11.847Z,9.96
2022-11-16T06:08:14.819Z,9.31
2022-11-16T06:13:17.485Z,9.69
2022-11-16T06:18:20.964Z,9.54
2022-11-16T06:23:24.276Z,9.64
2022-11-16T06:28:27.526Z,9.81
2022-11-16T06:33:33.607Z,9.81
2022-11-16T06:38:36.855Z,9.71
2022-11-16T06:43:39.760Z,10.01
2022-11-16T06:48:43.308Z,9.99
2022-11-16T06:53:46.877Z,10.04
2022-11-16T06:58:53.207Z,10.12
2022-11-16T07:03:59.955Z,9.82
2022-11-16T07:09:06.818Z,10.25
2022-11-16T07:14:10.323Z,10.03
2022-11-16T07:19:13.990Z,9.69
2022-11-16T07:24:17.406Z,10.24
2022-11-16T07:29:22.385Z,10.33
2022-11-16T07:34:26.023Z,10.37
2022-11-16T07:39:29.824Z,9.58
2022-11-16T07:44:34.657Z,10.27
2022-11-16T07:49:38.352Z,9.73
2022-11-16T07:54:41.795Z,10.54
2022-11-16T07:59:45.410Z,10.24
2022-11-16T08:04:48.864Z,10.46
2022-11-16T08:09:56.388Z,10.31
2022-11-16T08:15:00.004Z,10.65
2022-11-16T08:20:03.538Z,10.56
2022-11-16T08:25:07.963Z,10.78
2022-11-16T08:30:12.246Z,10.82
2022-11-16T08:35:18.083Z,10.77
2022-11-16T08:40:21.461Z,10.94
2022-11-16T08:45:25.400Z,10.22
2022-11-16T08:55:49.325Z,11.09
2022-11-16T09:00:53.176Z,10.99
2022-11-16T09:05:57.133Z,11.25
2022-11-16T09:11:00.734Z,10.77
2022-11-16T09:16:05.666Z,11.46
2022-11-16T09:21:09.824Z,11.16
2022-11-16T09:26:14.656Z,11.52
2022-11-16T09:31:23.203Z,11.60
2022-11-16T09:36:29.554Z,11.50
2022-11-16T09:42:07.477Z,11.51
2022-11-16T09:47:18.609Z,11.85
2022-11-16T09:52:33.025Z,11.56
2022-11-16T09:57:38.831Z,11.87
2022-11-16T10:02:48.574Z,12.11
2022-11-16T10:07:59.715Z,12.16
2022-11-16T10:13:20.599Z,12.11
2022-11-16T10:18:42.296Z,12.32
2022-11-16T10:23:46.080Z,12.39
2022-11-16T10:29:08.536Z,12.36
2022-11-16T10:34:21.129Z,12.46
2022-11-16T10:39:26.681Z,12.13
2022-11-16T10:44:40.795Z,12.70
2022-11-16T10:50:01.682Z,12.53
2022-11-16T10:55:05.464Z,12.71
2022-11-16T11:00:12.876Z,12.54
2022-11-16T11:05:23.444Z,12.74
2022-11-16T11:10:34.428Z,12.85
2022-11-16T11:15:42.456Z,12.56
2022-11-16T11:21:05.023Z,12.88
2022-11-16T11:26:28.369Z,12.35
2022-11-16T11:31:49.715Z,13.00
2022-11-16T11:37:04.932Z,12.54
2022-11-16T11:42:15.258Z,12.79
2022-11-16T11:47:57.510Z,12.83
2022-11-16T11:53:29.006Z,12.81
2022-11-16T11:58:41.283Z,12.84
2022-11-16T12:04:11.508Z,12.91
2022-11-16T12:09:30.464Z,12.96
2022-11-16T12:14:58.314Z,12.74
2022-11-16T12:20:13.499Z,12.94
2022-11-16T12:25:52.503Z,12.53
2022-11-16T12:31:43.872Z,12.78
2022-11-16T12:37:05.740Z,12.75
2022-11-16T12:42:15.220Z,12.63
2022-11-16T12:47:57.531Z,12.62
2022-11-16T12:53:52.227Z,11.93
2022-11-16T12:59:20.913Z,12.58
2022-11-16T13:04:34.650Z,12.21
2022-11-16T13:09:44.297Z,12.46
2022-11-16T13:14:50.468Z,12.38
2022-11-16T13:20:23.519Z,12.37
2022-11-16T13:26:01.838Z,11.66
2022-11-16T13:31:40.392Z,12.25
2022-11-16T13:36:46.156Z,12.28
2022-11-16T13:42:05.734Z,12.22
2022-11-16T13:47:24.685Z,12.29
2022-11-16T13:53:51.303Z,12.14
2022-11-16T13:58:23.029Z,11.93
2022-11-16T14:03:32.658Z,12.10
2022-11-16T14:08:39.427Z,12.22
2022-11-16T14:13:44.672Z,12.17
2022-11-16T14:18:50.910Z,12.05
2022-11-16T14:23:54.240Z,12.10
2022-11-16T14:29:22.488Z,12.14
2022-11-16T14:34:45.170Z,12.00
2022-11-16T14:39:52.178Z,11.77
2022-11-16T14:45:05.618Z,12.05
2022-11-16T14:50:22.920Z,11.53
2022-11-16T14:55:27.802Z,11.37
2022-11-16T15:00:31.615Z,11.28
2022-11-16T15:05:38.120Z,12.00
2022-11-16T15:10:52.018Z,11.85
2022-11-16T15:16:10.079Z,12.00
2022-11-16T15:21:23.752Z,11.67
2022-11-16T15:26:27.378Z,11.71
2022-11-16T15:31:30.930Z,11.40
2022-11-16T15:36:42.025Z,11.79
2022-11-16T15:41:48.639Z,11.63
2022-11-16T15:47:04.581Z,12.01
2022-11-16T15:52:08.233Z,11.18
2022-11-16T15:57:13.738Z,11.70
2022-11-16T16:02:22.444Z,11.77
2022-11-16T16:07:43.829Z,11.86
2022-11-16T16:12:54.743Z,11.78
2022-11-16T16:17:59.753Z,11.52
2022-11-16T16:23:13.965Z,11.70
2022-11-16T16:28:17.378Z,11.53
2022-11-16T16:33:22.784Z,11.73
2022-11-16T16:38:26.206Z,10.89
2022-11-16T16:43:30.451Z,11.73
2022-11-16T16:48:34.167Z,11.69
2022-11-16T16:53:37.701Z,11.71
2022-11-16T16:58:41.767Z,10.95
2022-11-16T17:03:45.449Z,11.37
2022-11-16T17:08:48.973Z,11.61
2022-11-16T17:13:52.435Z,11.46
2022-11-16T17:18:56.982Z,11.45
2022-11-16T17:24:00.466Z,10.53
2022-11-16T17:29:04.120Z,10.83
2022-11-16T17:34:13.321Z,10.14
2022-11-16T17:39:19.025Z,10.34
2022-11-16T17:44:22.593Z,10.29
2022-11-16T17:49:26.081Z,10.46
2022-11-16T17:54:29.739Z,10.39
2022-11-16T17:59:40.340Z,10.64
2022-11-16T18:04:49.678Z,10.13
2022-11-16T18:09:54.431Z,10.03
2022-11-16T18:15:26.573Z,10.54
2022-11-16T18:20:22.118Z,10.73
2022-11-16T18:25:25.705Z,9.99
2022-11-16T18:30:29.138Z,10.51
2022-11-16T18:35:32.546Z,10.77
2022-11-16T18:40:36.177Z,10.72
2022-11-16T18:45:39.821Z,10.85
2022-11-16T18:50:43.234Z,10.78
2022-11-16T18:55:57.869Z,10.68
2022-11-16T19:01:05.283Z,10.97
2022-11-16T19:06:10.787Z,10.83
2022-11-16T19:11:16.839Z,10.92
2022-11-16T19:16:20.311Z,10.81
2022-11-16T19:21:24.503Z,11.08
2022-11-16T19:26:29.184Z,11.24
2022-11-16T19:31:34.216Z,10.95
2022-11-16T19:36:40.686Z,10.99
2022-11-16T19:41:44.397Z,10.53
2022-11-16T19:46:48.000Z,10.81
2022-11-16T19:51:53.118Z,9.73
2022-11-16T19:56:56.623Z,10.02
2022-11-16T20:02:00.115Z,10.49
2022-11-16T20:07:03.743Z,10.07
2022-11-16T20:12:07.590Z,10.38
2022-11-16T20:17:12.599Z,10.49
2022-11-16T20:22:17.905Z,10.29
2022-11-16T20:27:21.821Z,10.05
2022-11-16T20:32:26.287Z,10.22
2022-11-16T20:37:31.062Z,9.83
2022-11-16T20:42:34.495Z,9.34
2022-11-16T20:47:37.939Z,9.78
2022-11-16T20:52:44.298Z,9.86
2022-11-16T20:57:49.716Z,9.82
2022-11-16T21:02:53.241Z,9.83
2022-11-16T21:07:57.311Z,9.61
2022-11-16T21:13:19.443Z,10.00
2022-11-16T21:18:30.742Z,9.58
2022-11-16T21:23:37.282Z,9.45
2022-11-16T21:28:42.371Z,9.61
2022-11-16T21:33:46.827Z,9.94
2022-11-16T21:38:53.324Z,9.62
2022-11-16T21:43:57.373Z,9.97
2022-11-16T21:49:00.847Z,9.61
2022-11-16T21:54:05.317Z,8.79
2022-11-16T21:59:23.521Z,9.05
2022-11-16T22:04:56.286Z,9.71
2022-11-16T22:10:12.218Z,9.51
2022-11-16T22:15:16.037Z,9.18
2022-11-16T22:20:19.573Z,9.56
2022-11-16T22:25:23.012Z,9.34
2022-11-16T22:30:26.672Z,9.64
2022-11-16T22:35:30.453Z,9.57
2022-11-16T22:40:34.014Z,9.18
2022-11-16T22:45:37.450Z,8.79
2022-11-16T22:50:40.995Z,8.57
2022-11-16T22:55:45.443Z,8.62
2022-11-16T23:00:49.166Z,8.66
2022-11-16T23:05:52.722Z,8.91
2022-11-16T23:11:22.268Z,9.52
2022-11-16T23:16:25.722Z,9.20
2022-11-16T23:21:47.582Z,9.66
2022-11-16T23:27:09.990Z,9.62
2022-11-16T23:32:13.585Z,9.21
2022-11-16T23:37:17.033Z,9.51
2022-11-16T23:42:39.739Z,9.43
2022-11-16T23:47:43.298Z,9.89
2022-11-16T23:52:46.695Z,9.62
2022-11-16T23:57:54.927Z,9.37
